createdAt,value
2022-07-29T00:03:26.500Z,0.90
2022-07-29T00:07:38.181Z,0.95
2022-07-29T00:11:49.850Z,0.90
2022-07-29T00:16:04.893Z,0.93
2022-07-29T00:20:16.916Z,0.80
2022-07-29T00:24:28.482Z,1.00
2022-07-29T00:28:40.141Z,0.90
2022-07-29T00:32:51.692Z,0.80
2022-07-29T00:37:03.758Z,0.90
2022-07-29T00:41:15.945Z,0.90
2022-07-29T00:45:27.545Z,1.00
2022-07-29T00:49:41.166Z,1.05
2022-07-29T00:53:53.719Z,1.15
2022-07-29T00:58:05.920Z,1.15
2022-07-29T01:02:17.532Z,0.85
2022-07-29T01:06:29.315Z,1.00
2022-07-29T01:10:42.957Z,0.93
2022-07-29T01:14:56.379Z,0.98
2022-07-29T01:19:48.697Z,1.13
2022-07-29T01:24:24.893Z,1.15
2022-07-29T01:28:53.275Z,1.10
2022-07-29T01:33:10.340Z,1.20
2022-07-29T01:37:44.976Z,1.08
2022-07-29T01:42:23.023Z,1.00
2022-07-29T01:46:37.933Z,1.45
2022-07-29T01:50:53.412Z,1.00
2022-07-29T01:55:10.530Z,1.02
2022-07-29T01:59:24.403Z,0.82
2022-07-29T02:03:37.269Z,0.95
2022-07-29T02:07:50.124Z,1.08
2022-07-29T02:12:04.320Z,0.70
2022-07-29T02:16:17.509Z,0.80
2022-07-29T02:20:30.897Z,0.90
2022-07-29T02:24:45.175Z,0.90
2022-07-29T02:29:00.094Z,0.95
2022-07-29T02:33:15.711Z,1.45
2022-07-29T02:37:30.093Z,1.17
2022-07-29T02:41:47.594Z,1.10
2022-07-29T02:46:01.379Z,0.95
2022-07-29T02:50:22.485Z,1.25
2022-07-29T02:54:43.297Z,0.90
2022-07-29T02:58:57.921Z,1.30
2022-07-29T03:03:16.667Z,1.42
2022-07-29T03:07:29.268Z,1.08
2022-07-29T03:11:49.865Z,1.30
2022-07-29T03:16:03.757Z,1.05
2022-07-29T03:20:15.662Z,1.45
2022-07-29T03:24:32.333Z,1.63
2022-07-29T03:28:44.868Z,1.67
2022-07-29T03:32:56.567Z,1.50
2022-07-29T03:37:10.323Z,1.35
2022-07-29T03:41:23.864Z,1.67
2022-07-29T03:45:36.701Z,1.55
2022-07-29T03:49:51.414Z,1.75
2022-07-29T03:54:09.901Z,1.35
2022-07-29T03:58:23.736Z,1.50
2022-07-29T04:02:36.663Z,1.50
2022-07-29T04:06:48.577Z,1.45
2022-07-29T04:11:01.985Z,1.50
2022-07-29T04:15:13.668Z,1.20
2022-07-29T04:19:25.342Z,1.63
2022-07-29T04:23:52.755Z,1.60
2022-07-29T04:28:05.141Z,1.70
2022-07-29T04:32:16.791Z,1.27
2022-07-29T04:36:29.911Z,1.60
2022-07-29T04:40:41.837Z,1.73
2022-07-29T04:44:53.513Z,1.88
2022-07-29T04:49:05.925Z,1.67
2022-07-29T04:53:17.666Z,1.60
2022-07-29T04:57:29.345Z,1.67
2022-07-29T05:01:41.080Z,1.30
2022-07-29T05:05:52.967Z,1.58
2022-07-29T05:10:05.105Z,1.58
2022-07-29T05:14:17.144Z,1.60
2022-07-29T05:18:29.419Z,1.60
2022-07-29T05:22:41.382Z,1.58
2022-07-29T05:26:53.059Z,1.48
2022-07-29T05:31:04.825Z,1.60
2022-07-29T05:35:16.817Z,1.92
2022-07-29T05:39:49.042Z,1.50
2022-07-29T05:43:59.949Z,1.60
2022-07-29T05:48:11.472Z,1.60
2022-07-29T05:52:23.014Z,1.50
2022-07-29T05:56:34.556Z,1.45
2022-07-29T06:00:46.471Z,2.08
2022-07-29T06:04:58.027Z,1.75
2022-07-29T06:09:12.547Z,1.67
2022-07-29T06:13:24.534Z,1.60
2022-07-29T06:17:36.088Z,1.75
2022-07-29T06:21:48.888Z,1.60
2022-07-29T06:26:01.042Z,1.38
2022-07-29T06:30:13.100Z,1.92
2022-07-29T06:34:24.650Z,1.92
2022-07-29T06:38:39.080Z,1.75
2022-07-29T06:42:54.527Z,1.65
2022-07-29T06:47:06.113Z,1.70
2022-07-29T06:51:22.976Z,1.50
2022-07-29T06:55:35.208Z,1.38
2022-07-29T06:59:46.750Z,1.80
2022-07-29T07:03:58.462Z,1.10
2022-07-29T07:08:10.146Z,1.40
2022-07-29T07:12:21.727Z,1.60
2022-07-29T07:16:33.596Z,1.13
2022-07-29T07:20:46.120Z,1.30
2022-07-29T07:24:57.679Z,1.35
2022-07-29T07:29:09.224Z,1.80
2022-07-29T07:33:20.797Z,1.20
2022-07-29T07:37:32.551Z,1.65
2022-07-29T07:41:44.084Z,1.73
2022-07-29T07:46:20.486Z,1.27
2022-07-29T07:50:32.148Z,1.20
2022-07-29T07:54:44.945Z,1.30
2022-07-29T07:58:56.518Z,1.58
2022-07-29T08:03:16.852Z,1.27
2022-07-29T08:07:30.161Z,1.85
2022-07-29T08:11:52.174Z,1.60
2022-07-29T08:16:12.972Z,1.42
2022-07-29T08:20:24.606Z,1.45
2022-07-29T08:24:45.145Z,1.40
2022-07-29T08:28:56.746Z,1.63
2022-07-29T08:33:08.323Z,1.58
2022-07-29T08:37:19.847Z,1.40
2022-07-29T08:41:32.025Z,1.50
2022-07-29T08:45:49.467Z,1.40
2022-07-29T08:50:01.026Z,1.48
2022-07-29T08:54:18.331Z,1.60
2022-07-29T08:58:36.649Z,1.52
2022-07-29T09:02:56.849Z,1.65
2022-07-29T09:07:09.959Z,1.40
2022-07-29T09:11:21.581Z,1.70
2022-07-29T09:15:33.129Z,1.30
2022-07-29T09:19:45.553Z,1.50
2022-07-29T09:24:17.536Z,1.60
2022-07-29T09:28:29.239Z,1.38
2022-07-29T09:32:59.109Z,1.83
2022-07-29T09:37:10.757Z,1.48
2022-07-29T09:41:22.271Z,1.25
2022-07-29T09:45:35.108Z,1.60
2022-07-29T09:50:00.294Z,1.58
2022-07-29T09:54:28.930Z,1.70
2022-07-29T09:58:40.609Z,1.60
2022-07-29T10:03:02.034Z,1.30
2022-07-29T10:07:13.583Z,1.40
2022-07-29T10:11:25.134Z,1.35
2022-07-29T10:15:56.737Z,1.65
2022-07-29T10:20:12.456Z,1.52
2022-07-29T10:24:29.331Z,1.60
2022-07-29T10:28:40.926Z,1.60
2022-07-29T10:33:15.693Z,1.33
2022-07-29T10:37:45.792Z,1.50
2022-07-29T10:42:29.777Z,1.30
2022-07-29T10:46:46.781Z,1.83
2022-07-29T10:51:04.836Z,1.50
2022-07-29T10:55:43.728Z,1.83
2022-07-29T11:00:17.039Z,1.50
2022-07-29T11:04:44.111Z,1.40
2022-07-29T11:09:18.390Z,1.77
2022-07-29T11:13:44.158Z,1.50
2022-07-29T11:17:59.369Z,1.63
2022-07-29T11:22:16.528Z,1.20
2022-07-29T11:26:28.419Z,1.35
2022-07-29T11:30:51.446Z,1.20
2022-07-29T11:35:38.336Z,1.30
2022-07-29T11:39:55.785Z,1.50
2022-07-29T11:44:08.956Z,1.50
2022-07-29T11:48:28.461Z,1.40
2022-07-29T11:52:49.760Z,1.67
2022-07-29T11:57:02.078Z,1.60
2022-07-29T12:01:17.738Z,1.75
2022-07-29T12:05:38.938Z,1.42
2022-07-29T12:10:01.379Z,1.58
2022-07-29T12:14:26.102Z,1.88
2022-07-29T12:18:37.921Z,1.60
2022-07-29T12:22:50.483Z,1.63
2022-07-29T12:27:02.691Z,1.50
2022-07-29T12:31:43.636Z,1.50
2022-07-29T12:36:06.131Z,1.65
2022-07-29T12:40:21.652Z,1.10
2022-07-29T12:44:53.721Z,1.58
2022-07-29T12:49:05.701Z,1.80
2022-07-29T12:53:17.951Z,1.52
2022-07-29T12:57:30.060Z,1.80
2022-07-29T13:01:42.311Z,1.70
2022-07-29T13:05:54.050Z,1.58
2022-07-29T13:10:19.101Z,1.50
2022-07-29T13:14:38.385Z,1.70
2022-07-29T13:19:03.907Z,1.48
2022-07-29T13:23:16.629Z,1.30
2022-07-29T13:27:30.260Z,1.63
2022-07-29T13:31:45.156Z,1.52
2022-07-29T13:35:57.322Z,1.60
2022-07-29T13:40:10.139Z,1.38
2022-07-29T13:44:21.910Z,1.30
2022-07-29T13:48:33.773Z,1.33
2022-07-29T13:52:45.579Z,2.05
2022-07-29T13:56:57.531Z,1.60
2022-07-29T14:01:09.968Z,1.88
2022-07-29T14:05:21.676Z,1.40
2022-07-29T14:09:37.304Z,1.40
2022-07-29T14:13:53.427Z,1.67
2022-07-29T14:18:05.283Z,1.50
2022-07-29T14:22:20.015Z,1.40
2022-07-29T14:26:35.048Z,1.45
2022-07-29T14:30:49.466Z,1.40
2022-07-29T14:35:01.275Z,1.42
2022-07-29T14:39:13.387Z,1.27
2022-07-29T14:43:25.504Z,1.33
2022-07-29T14:47:40.523Z,1.20
2022-07-29T14:51:52.345Z,1.30
2022-07-29T14:56:21.187Z,1.25
2022-07-29T15:00:38.020Z,1.85
2022-07-29T15:04:50.225Z,1.60
2022-07-29T15:09:02.315Z,1.10
2022-07-29T15:13:14.287Z,1.50
2022-07-29T15:17:26.468Z,1.30
2022-07-29T15:21:41.597Z,1.35
2022-07-29T15:26:00.607Z,1.42
2022-07-29T15:30:32.339Z,1.25
2022-07-29T15:34:52.173Z,1.50
2022-07-29T15:39:07.959Z,1.48
2022-07-29T15:43:22.943Z,1.30
2022-07-29T15:47:42.018Z,1.17
2022-07-29T15:51:58.194Z,1.50
2022-07-29T15:56:11.566Z,1.48
2022-07-29T16:00:24.571Z,1.83
2022-07-29T16:04:36.606Z,1.20
2022-07-29T16:08:48.288Z,1.35
2022-07-29T16:13:00.009Z,1.75
2022-07-29T16:17:14.841Z,1.75
2022-07-29T16:21:26.848Z,1.23
2022-07-29T16:25:59.125Z,1.70
2022-07-29T16:30:11.481Z,1.55
2022-07-29T16:34:37.598Z,1.35
2022-07-29T16:38:49.559Z,1.20
2022-07-29T16:43:01.368Z,1.65
2022-07-29T16:47:27.467Z,1.50
2022-07-29T16:51:39.551Z,1.40
2022-07-29T16:55:51.158Z,1.30
2022-07-29T17:00:05.590Z,1.50
2022-07-29T17:04:17.627Z,1.50
2022-07-29T17:08:29.527Z,1.50
2022-07-29T17:12:43.938Z,1.88
2022-07-29T17:17:01.074Z,1.52
2022-07-29T17:21:14.640Z,1.83
2022-07-29T17:25:26.807Z,1.45
2022-07-29T17:29:39.532Z,1.73
2022-07-29T17:33:51.574Z,1.60
2022-07-29T17:38:11.561Z,1.65
2022-07-29T17:42:41.349Z,1.70
2022-07-29T17:46:52.947Z,1.60
2022-07-29T17:51:04.690Z,1.60
2022-07-29T17:55:16.270Z,1.42
2022-07-29T17:59:27.797Z,1.35
2022-07-29T18:03:40.251Z,1.13
2022-07-29T18:07:51.923Z,1.13
2022-07-29T18:12:03.705Z,1.35
2022-07-29T18:16:15.321Z,1.23
2022-07-29T18:36:09.992Z,1.30
2022-07-29T18:47:12.091Z,2.00
2022-07-29T18:56:30.550Z,1.60
2022-07-29T19:00:42.167Z,1.40
2022-07-29T19:04:54.978Z,1.45
2022-07-29T19:09:08.738Z,1.30
2022-07-29T19:13:20.404Z,1.42
2022-07-29T19:17:34.431Z,1.30
2022-07-29T19:21:49.333Z,0.90
2022-07-29T19:26:01.244Z,1.17
2022-07-29T19:30:13.374Z,1.02
2022-07-29T19:34:25.034Z,1.40
2022-07-29T19:38:39.465Z,1.45
2022-07-29T19:42:52.848Z,1.20
2022-07-29T19:47:05.207Z,1.50
2022-07-29T19:51:17.416Z,1.25
2022-07-29T19:55:29.222Z,1.27
2022-07-29T19:59:41.216Z,1.40
2022-07-29T20:03:53.867Z,1.38
2022-07-29T20:08:06.315Z,1.33
2022-07-29T20:12:17.996Z,1.70
2022-07-29T20:16:29.647Z,1.27
2022-07-29T20:20:41.494Z,1.80
2022-07-29T20:24:53.121Z,1.50
2022-07-29T20:29:07.111Z,1.50
2022-07-29T20:33:18.825Z,1.45
2022-07-29T20:37:30.474Z,1.58
2022-07-29T20:41:45.120Z,1.63
2022-07-29T20:45:56.806Z,1.52
2022-07-29T20:50:11.813Z,1.58
2022-07-29T20:54:23.792Z,1.60
2022-07-29T20:58:36.512Z,1.85
2022-07-29T21:02:48.475Z,1.90
2022-07-29T21:07:00.494Z,1.70
2022-07-29T21:11:12.373Z,1.60
2022-07-29T21:15:24.142Z,1.55
2022-07-29T21:19:35.821Z,2.13
2022-07-29T21:23:47.830Z,2.00
2022-07-29T21:28:17.918Z,1.88
2022-07-29T21:32:30.542Z,1.77
2022-07-29T21:36:48.168Z,1.80
2022-07-29T21:41:01.466Z,2.15
2022-07-29T21:45:15.946Z,2.10
2022-07-29T21:49:27.595Z,2.30
2022-07-29T21:53:39.366Z,1.98
2022-07-29T21:57:51.632Z,1.77
2022-07-29T22:02:03.704Z,1.98
2022-07-29T22:06:18.148Z,2.17
2022-07-29T22:10:31.083Z,1.88
2022-07-29T22:14:42.745Z,2.33
2022-07-29T22:18:54.454Z,2.15
2022-07-29T22:23:06.086Z,2.08
2022-07-29T22:27:17.786Z,2.20
2022-07-29T22:31:29.491Z,2.35
2022-07-29T22:35:41.213Z,2.58
2022-07-29T22:39:52.916Z,2.20
2022-07-29T22:44:04.839Z,2.20
2022-07-29T22:48:16.870Z,2.35
2022-07-29T22:52:28.512Z,2.10
2022-07-29T22:56:40.221Z,2.63
2022-07-29T23:00:51.985Z,2.90
2022-07-29T23:05:04.434Z,2.83
2022-07-29T23:09:18.389Z,3.15
2022-07-29T23:13:30.034Z,4.15
2022-07-29T23:17:41.649Z,3.80
2022-07-29T23:21:54.006Z,4.05
2022-07-29T23:26:06.008Z,4.22
2022-07-29T23:30:17.605Z,4.03
2022-07-29T23:34:29.216Z,4.10
2022-07-29T23:38:41.272Z,4.05
2022-07-29T23:42:52.991Z,4.05
2022-07-29T23:47:04.752Z,3.67
2022-07-29T23:51:16.580Z,3.80
2022-07-29T23:55:37.254Z,3.83
2022-07-29T23:59:51.405Z,3.72
